createdAt,value
2022-10-05T00:00:53.429Z,19.27
2022-10-05T00:03:22.659Z,19.25
2022-10-05T00:05:50.026Z,19.30
2022-10-05T00:08:25.410Z,19.36
2022-10-05T00:10:52.712Z,19.29
2022-10-05T00:13:26.046Z,19.18
2022-10-05T00:16:07.807Z,19.46
2022-10-05T00:18:34.606Z,19.47
2022-10-05T00:21:02.064Z,19.47
2022-10-05T00:23:32.316Z,19.39
2022-10-05T00:26:11.893Z,18.90
2022-10-05T00:28:40.608Z,19.07
2022-10-05T00:31:17.290Z,18.99
2022-10-05T00:33:44.149Z,19.10
2022-10-05T00:36:11.113Z,19.05
2022-10-05T00:38:38.216Z,19.02
2022-10-05T00:41:39.353Z,18.76
2022-10-05T00:44:12.076Z,19.04
2022-10-05T00:46:57.237Z,19.12
2022-10-05T00:50:01.885Z,19.14
2022-10-05T00:52:36.960Z,19.17
2022-10-05T00:55:26.648Z,18.94
2022-10-05T00:57:59.373Z,19.15
2022-10-05T01:00:27.935Z,19.16
2022-10-05T01:03:00.553Z,19.19
2022-10-05T01:05:48.781Z,19.20
2022-10-05T01:08:18.414Z,19.05
2022-10-05T01:10:52.715Z,18.97
2022-10-05T01:13:28.682Z,18.90
2022-10-05T01:16:05.005Z,18.98
2022-10-05T01:18:50.645Z,18.49
2022-10-05T01:21:23.058Z,18.87
2022-10-05T01:24:14.342Z,19.02
2022-10-05T01:27:05.331Z,19.04
2022-10-05T01:29:49.767Z,19.09
2022-10-05T01:32:31.819Z,18.99
2022-10-05T01:35:07.774Z,18.97
2022-10-05T01:37:42.231Z,18.99
2022-10-05T01:40:16.138Z,18.67
2022-10-05T01:42:45.758Z,18.92
2022-10-05T01:45:47.627Z,18.67
2022-10-05T01:48:17.341Z,18.62
2022-10-05T01:51:02.630Z,18.46
2022-10-05T01:53:42.865Z,17.92
2022-10-05T01:56:41.612Z,18.27
2022-10-05T01:59:19.010Z,18.11
2022-10-05T02:01:54.990Z,18.17
2022-10-05T02:05:00.886Z,18.02
2022-10-05T02:07:36.167Z,17.73
2022-10-05T02:10:14.911Z,17.67
2022-10-05T02:12:43.143Z,17.39
2022-10-05T02:15:17.982Z,17.50
2022-10-05T02:17:49.242Z,17.40
2022-10-05T02:20:23.733Z,17.51
2022-10-05T02:22:54.832Z,17.49
2022-10-05T02:25:38.932Z,17.51
2022-10-05T02:28:18.777Z,17.60
2022-10-05T02:30:53.074Z,17.51
2022-10-05T02:33:38.574Z,17.48
2022-10-05T02:36:34.721Z,17.62
2022-10-05T02:39:10.395Z,17.58
2022-10-05T02:41:48.202Z,17.48
2022-10-05T02:44:23.793Z,17.63
2022-10-05T02:46:57.430Z,17.60
2022-10-05T02:49:24.611Z,17.69
2022-10-05T02:52:03.349Z,17.73
2022-10-05T02:54:40.248Z,17.63
2022-10-05T02:57:19.009Z,17.84
2022-10-05T03:00:04.684Z,17.90
2022-10-05T03:02:44.342Z,17.86
2022-10-05T03:05:17.428Z,18.02
2022-10-05T03:08:22.428Z,18.00
2022-10-05T03:11:04.744Z,18.06
2022-10-05T03:13:49.809Z,17.98
2022-10-05T03:16:38.528Z,17.87
2022-10-05T03:19:22.441Z,17.83
2022-10-05T03:22:01.060Z,17.93
2022-10-05T03:24:36.767Z,17.93
2022-10-05T03:27:22.891Z,17.85
2022-10-05T03:30:08.138Z,17.69
2022-10-05T03:32:54.801Z,17.36
2022-10-05T03:35:43.016Z,17.35
2022-10-05T03:38:31.330Z,17.19
2022-10-05T03:41:35.215Z,17.11
2022-10-05T03:44:12.644Z,17.16
2022-10-05T03:46:48.945Z,17.08
2022-10-05T03:49:36.060Z,17.07
2022-10-05T03:52:12.849Z,16.90
2022-10-05T03:54:48.759Z,17.01
2022-10-05T03:57:26.705Z,17.12
2022-10-05T04:00:12.962Z,16.92
2022-10-05T04:02:57.528Z,16.90
2022-10-05T04:05:30.034Z,16.91
2022-10-05T04:08:01.780Z,16.87
2022-10-05T04:10:35.694Z,16.96
2022-10-05T04:13:15.693Z,16.89
2022-10-05T04:16:10.129Z,16.86
2022-10-05T04:18:47.785Z,16.66
2022-10-05T04:21:51.755Z,16.53
2022-10-05T04:24:32.535Z,16.53
2022-10-05T04:27:03.350Z,16.46
2022-10-05T04:30:12.674Z,16.28
2022-10-05T04:32:43.387Z,16.29
2022-10-05T04:35:15.871Z,16.45
2022-10-05T04:38:01.149Z,16.49
2022-10-05T04:40:33.885Z,16.57
2022-10-05T04:43:24.342Z,16.67
2022-10-05T04:45:51.101Z,16.74
2022-10-05T04:48:20.718Z,16.74
2022-10-05T04:51:00.263Z,16.57
2022-10-05T04:54:06.356Z,16.42
2022-10-05T04:56:39.963Z,16.50
2022-10-05T04:59:50.946Z,16.43
2022-10-05T05:02:25.320Z,16.44
2022-10-05T05:05:10.702Z,16.51
2022-10-05T05:07:49.321Z,16.41
2022-10-05T05:10:25.007Z,16.30
2022-10-05T05:13:00.665Z,16.30
2022-10-05T05:15:50.475Z,16.17
2022-10-05T05:18:26.637Z,16.32
2022-10-05T05:21:02.463Z,16.43
2022-10-05T05:23:39.642Z,16.51
2022-10-05T05:26:40.213Z,16.54
2022-10-05T05:29:30.990Z,16.66
2022-10-05T05:32:01.134Z,16.76
2022-10-05T05:34:55.897Z,16.75
2022-10-05T05:37:28.470Z,16.91
2022-10-05T05:40:03.915Z,17.01
2022-10-05T05:42:43.503Z,17.03
2022-10-05T05:45:20.466Z,16.98
2022-10-05T05:47:54.011Z,16.93
2022-10-05T05:50:38.811Z,16.92
2022-10-05T05:53:17.237Z,16.89
2022-10-05T05:55:50.706Z,16.59
2022-10-05T05:58:17.421Z,16.71
2022-10-05T06:00:54.412Z,16.65
2022-10-05T06:03:21.187Z,16.71
2022-10-05T06:05:52.910Z,16.73
2022-10-05T06:08:43.523Z,16.83
2022-10-05T06:11:18.267Z,16.79
2022-10-05T06:13:45.530Z,16.68
2022-10-05T06:16:24.766Z,16.60
2022-10-05T06:18:58.918Z,16.41
2022-10-05T06:21:34.733Z,16.09
2022-10-05T06:24:24.611Z,16.23
2022-10-05T06:27:03.197Z,16.22
2022-10-05T06:29:48.169Z,16.23
2022-10-05T06:32:28.948Z,16.28
2022-10-05T06:35:07.990Z,16.33
2022-10-05T06:37:56.382Z,16.32
2022-10-05T06:40:57.940Z,16.20
2022-10-05T06:43:39.865Z,16.19
2022-10-05T06:46:19.716Z,16.21
2022-10-05T06:49:18.774Z,16.09
2022-10-05T06:51:51.318Z,16.29
2022-10-05T06:54:30.173Z,16.31
2022-10-05T06:57:15.817Z,16.17
2022-10-05T06:59:52.078Z,16.10
2022-10-05T07:02:29.776Z,15.96
2022-10-05T07:05:42.736Z,15.71
2022-10-05T07:08:37.793Z,15.86
2022-10-05T07:11:20.909Z,15.84
2022-10-05T07:14:03.707Z,15.82
2022-10-05T07:16:52.078Z,15.83
2022-10-05T07:19:40.618Z,15.87
2022-10-05T07:22:31.786Z,15.84
2022-10-05T07:25:22.042Z,15.93
2022-10-05T07:28:06.035Z,15.95
2022-10-05T07:30:44.585Z,16.22
2022-10-05T07:33:22.183Z,16.32
2022-10-05T07:36:23.326Z,16.44
2022-10-05T07:39:07.966Z,16.90
2022-10-05T07:41:46.153Z,17.05
2022-10-05T07:44:38.326Z,17.21
2022-10-05T07:47:13.448Z,17.11
2022-10-05T07:49:43.445Z,17.67
2022-10-05T07:52:19.378Z,17.78
2022-10-05T07:54:53.277Z,17.92
2022-10-05T07:57:30.184Z,18.11
2022-10-05T08:00:13.841Z,18.39
2022-10-05T08:03:11.670Z,18.66
2022-10-05T08:05:42.619Z,18.97
2022-10-05T08:08:14.418Z,19.20
2022-10-05T08:10:56.189Z,19.37
2022-10-05T08:13:43.615Z,19.36
2022-10-05T08:16:15.147Z,19.74
2022-10-05T08:19:00.029Z,20.02
2022-10-05T08:21:41.560Z,20.09
2022-10-05T08:24:20.499Z,20.44
2022-10-05T08:26:59.925Z,20.48
2022-10-05T08:29:37.841Z,20.74
2022-10-05T08:32:15.633Z,21.14
2022-10-05T08:34:51.466Z,21.20
2022-10-05T08:37:29.390Z,21.53
2022-10-05T08:40:14.798Z,21.65
2022-10-05T08:42:41.525Z,21.85
2022-10-05T08:45:54.115Z,21.94
2022-10-05T08:48:58.114Z,22.24
2022-10-05T08:51:27.542Z,22.69
2022-10-05T08:54:09.294Z,23.03
2022-10-05T08:56:53.780Z,23.24
2022-10-05T08:59:57.756Z,23.64
2022-10-05T09:02:52.869Z,23.95
2022-10-05T09:05:38.106Z,24.43
2022-10-05T09:08:23.666Z,24.71
2022-10-05T09:11:03.918Z,24.89
2022-10-05T09:13:31.641Z,25.34
2022-10-05T09:16:32.615Z,25.66
2022-10-05T09:19:02.514Z,26.02
2022-10-05T09:21:41.862Z,26.18
2022-10-05T09:24:14.793Z,26.56
2022-10-05T09:26:42.982Z,26.97
2022-10-05T09:29:57.369Z,27.07
2022-10-05T09:32:44.596Z,27.54
2022-10-05T09:35:21.584Z,27.69
2022-10-05T09:37:48.217Z,28.06
2022-10-05T09:40:24.031Z,28.29
2022-10-05T09:43:20.472Z,28.51
2022-10-05T09:45:48.980Z,28.70
2022-10-05T09:48:45.487Z,28.66
2022-10-05T09:51:36.767Z,29.13
2022-10-05T09:54:21.543Z,29.20
2022-10-05T09:57:15.112Z,29.16
2022-10-05T10:00:21.206Z,29.39
2022-10-05T10:03:04.976Z,29.41
2022-10-05T10:05:34.809Z,29.70
2022-10-05T10:08:23.570Z,29.99
2022-10-05T10:11:02.330Z,30.20
2022-10-05T10:13:41.166Z,30.39
2022-10-05T10:16:27.017Z,30.81
2022-10-05T10:19:01.176Z,31.37
2022-10-05T10:22:00.295Z,31.59
2022-10-05T10:24:52.057Z,31.86
2022-10-05T10:27:41.959Z,31.95
2022-10-05T10:30:47.569Z,32.41
2022-10-05T10:33:16.869Z,32.66
2022-10-05T10:36:07.009Z,32.76
2022-10-05T10:39:07.000Z,32.92
2022-10-05T10:42:14.118Z,33.15
2022-10-05T10:44:59.091Z,33.53
2022-10-05T10:47:44.433Z,33.79
2022-10-05T10:50:28.377Z,33.92
2022-10-05T10:54:02.716Z,33.95
2022-10-05T10:56:47.723Z,34.04
2022-10-05T10:59:46.836Z,34.48
2022-10-05T11:02:42.469Z,34.61
2022-10-05T11:05:38.215Z,35.38
2022-10-05T11:08:22.899Z,36.68
2022-10-05T11:11:22.836Z,36.85
2022-10-05T11:14:16.642Z,36.36
2022-10-05T11:17:17.163Z,36.20
2022-10-05T11:20:05.742Z,36.38
2022-10-05T11:22:42.428Z,36.36
2022-10-05T11:25:33.932Z,36.59
2022-10-05T11:28:40.194Z,36.64
2022-10-05T11:31:12.895Z,37.09
2022-10-05T11:33:43.103Z,37.10
2022-10-05T11:36:37.952Z,37.15
2022-10-05T11:39:23.517Z,37.21
2022-10-05T11:42:08.046Z,37.09
2022-10-05T11:45:00.789Z,37.13
2022-10-05T11:47:39.634Z,37.32
2022-10-05T11:50:32.781Z,37.25
2022-10-05T11:53:23.161Z,37.62
2022-10-05T11:56:00.413Z,37.50
2022-10-05T11:58:33.809Z,37.20
2022-10-05T12:01:34.799Z,37.38
2022-10-05T12:04:27.768Z,37.14
2022-10-05T12:07:08.129Z,37.35
2022-10-05T12:10:02.857Z,37.74
2022-10-05T12:12:37.164Z,37.89
2022-10-05T12:15:10.390Z,38.19
2022-10-05T12:17:48.831Z,38.45
2022-10-05T12:20:40.318Z,38.60
2022-10-05T12:23:25.059Z,38.91
2022-10-05T12:26:02.200Z,39.03
2022-10-05T12:28:49.950Z,39.49
2022-10-05T12:31:43.780Z,39.75
2022-10-05T12:34:16.894Z,39.77
2022-10-05T12:37:16.326Z,39.96
2022-10-05T12:40:12.502Z,40.54
2022-10-05T12:42:52.037Z,40.86
2022-10-05T12:45:36.996Z,41.18
2022-10-05T12:48:19.207Z,41.58
2022-10-05T12:50:51.485Z,41.97
2022-10-05T12:53:33.376Z,42.29
2022-10-05T12:56:30.743Z,42.68
2022-10-05T12:59:42.695Z,43.32
2022-10-05T13:02:25.093Z,42.58
2022-10-05T13:05:11.996Z,42.82
2022-10-05T13:07:48.698Z,42.36
2022-10-05T13:10:24.791Z,40.41
2022-10-05T13:13:12.729Z,37.73
2022-10-05T13:15:56.565Z,36.02
2022-10-05T13:18:29.492Z,34.59
2022-10-05T13:21:12.841Z,33.38
2022-10-05T13:23:53.750Z,32.29
2022-10-05T13:26:34.165Z,31.54
2022-10-05T13:29:22.502Z,30.97
2022-10-05T13:31:55.754Z,30.35
2022-10-05T13:34:38.656Z,29.69
2022-10-05T13:37:31.857Z,29.39
2022-10-05T13:40:02.025Z,29.11
2022-10-05T13:42:41.287Z,28.76
2022-10-05T13:45:26.579Z,28.31
2022-10-05T13:48:27.474Z,28.06
2022-10-05T13:51:05.291Z,27.82
2022-10-05T13:53:42.677Z,27.73
2022-10-05T13:56:33.244Z,27.44
2022-10-05T13:59:33.136Z,27.26
2022-10-05T14:02:07.812Z,27.17
2022-10-05T14:04:51.195Z,26.84
2022-10-05T14:07:31.702Z,26.77
2022-10-05T14:10:02.227Z,26.57
2022-10-05T14:12:29.040Z,26.51
2022-10-05T14:15:12.897Z,26.44
2022-10-05T14:17:42.464Z,26.34
2022-10-05T14:20:27.481Z,26.19
2022-10-05T14:23:01.915Z,26.17
2022-10-05T14:25:31.052Z,26.06
2022-10-05T14:28:00.633Z,26.02
2022-10-05T14:30:30.122Z,26.02
2022-10-05T14:33:05.690Z,25.92
2022-10-05T14:35:56.057Z,25.55
2022-10-05T14:38:23.053Z,25.59
2022-10-05T14:41:13.406Z,25.22
2022-10-05T14:44:07.330Z,25.09
2022-10-05T14:46:36.682Z,25.23
2022-10-05T14:49:21.335Z,25.19
2022-10-05T14:51:49.676Z,25.29
2022-10-05T14:54:46.576Z,25.24
2022-10-05T14:57:40.830Z,25.13
2022-10-05T15:00:18.905Z,25.03
2022-10-05T15:02:45.610Z,25.11
2022-10-05T15:05:53.992Z,25.08
2022-10-05T15:08:53.710Z,25.06
2022-10-05T15:11:34.793Z,25.09
2022-10-05T15:14:06.406Z,25.01
2022-10-05T15:16:38.486Z,25.01
2022-10-05T15:19:24.418Z,24.98
2022-10-05T15:22:10.640Z,24.99
2022-10-05T15:24:56.055Z,25.08
2022-10-05T15:27:35.708Z,24.85
2022-10-05T15:30:12.655Z,24.77
2022-10-05T15:32:51.234Z,24.78
2022-10-05T15:36:00.770Z,24.75
2022-10-05T15:38:29.500Z,24.74
2022-10-05T15:41:18.335Z,24.67
2022-10-05T15:43:55.379Z,24.73
2022-10-05T15:46:47.165Z,24.65
2022-10-05T15:49:16.704Z,24.63
2022-10-05T15:52:07.663Z,24.57
2022-10-05T15:55:01.963Z,24.28
2022-10-05T15:57:48.731Z,24.51
2022-10-05T16:00:23.600Z,24.45
2022-10-05T16:03:12.281Z,24.43
2022-10-05T16:06:08.906Z,24.44
2022-10-05T16:08:55.924Z,24.26
2022-10-05T16:11:40.922Z,24.21
2022-10-05T16:14:10.425Z,24.24
2022-10-05T16:16:42.424Z,24.19
2022-10-05T16:19:12.665Z,24.16
2022-10-05T16:21:44.291Z,24.15
2022-10-05T16:24:35.678Z,24.08
2022-10-05T16:27:16.342Z,24.17
2022-10-05T16:30:11.863Z,23.94
2022-10-05T16:32:46.498Z,24.15
2022-10-05T16:35:25.331Z,24.18
2022-10-05T16:38:05.753Z,24.22
2022-10-05T16:41:01.073Z,23.98
2022-10-05T16:43:34.734Z,24.04
2022-10-05T16:46:22.166Z,23.98
2022-10-05T16:49:01.409Z,23.99
2022-10-05T16:51:28.143Z,23.97
2022-10-05T16:54:18.542Z,23.88
2022-10-05T16:56:52.127Z,23.44
2022-10-05T16:59:46.984Z,23.80
2022-10-05T17:02:35.442Z,23.83
2022-10-05T17:05:40.102Z,23.78
2022-10-05T17:08:27.908Z,23.72
2022-10-05T17:11:19.955Z,23.58
2022-10-05T17:14:08.265Z,23.47
2022-10-05T17:17:05.486Z,23.34
2022-10-05T17:20:01.250Z,23.33
2022-10-05T17:22:42.787Z,23.19
2022-10-05T17:25:27.856Z,23.09
2022-10-05T17:28:33.402Z,22.88
2022-10-05T17:31:15.223Z,22.81
2022-10-05T17:34:00.397Z,22.70
2022-10-05T17:36:49.234Z,22.58
2022-10-05T17:39:22.113Z,22.52
2022-10-05T17:41:49.401Z,22.41
2022-10-05T17:44:19.630Z,22.38
2022-10-05T17:47:01.097Z,22.20
2022-10-05T17:50:15.426Z,22.13
2022-10-05T17:53:03.062Z,21.68
2022-10-05T17:55:45.023Z,21.88
2022-10-05T17:58:24.133Z,21.80
2022-10-05T18:00:57.167Z,21.72
2022-10-05T18:04:11.587Z,21.66
2022-10-05T18:07:27.867Z,21.48
2022-10-05T18:09:59.257Z,21.55
2022-10-05T18:12:41.677Z,21.49
2022-10-05T18:15:09.472Z,21.44
2022-10-05T18:18:25.756Z,21.35
2022-10-05T18:21:14.141Z,21.24
2022-10-05T18:24:23.289Z,21.18
2022-10-05T18:27:05.289Z,21.08
2022-10-05T18:30:05.532Z,20.93
2022-10-05T18:32:38.321Z,20.95
2022-10-05T18:35:32.720Z,20.82
2022-10-05T18:38:19.621Z,20.74
2022-10-05T18:40:55.833Z,20.74
2022-10-05T18:43:34.836Z,20.54
2022-10-05T18:46:27.414Z,20.53
2022-10-05T18:49:08.127Z,20.35
2022-10-05T18:51:51.008Z,20.52
2022-10-05T18:54:57.541Z,20.44
2022-10-05T18:57:33.102Z,20.48
2022-10-05T19:00:08.038Z,20.52
2022-10-05T19:02:40.510Z,20.53
2022-10-05T19:05:49.113Z,20.49
2022-10-05T19:08:53.621Z,20.47
2022-10-05T19:11:36.605Z,20.38
2022-10-05T19:14:21.843Z,20.48
2022-10-05T19:17:01.588Z,20.47
2022-10-05T19:19:49.273Z,20.48
2022-10-05T19:22:26.584Z,20.48
2022-10-05T19:25:17.494Z,20.47
2022-10-05T19:28:14.248Z,20.41
2022-10-05T19:30:53.758Z,20.41
2022-10-05T19:33:37.876Z,20.40
2022-10-05T19:36:17.066Z,20.38
2022-10-05T19:39:06.649Z,20.35
2022-10-05T19:42:10.602Z,20.31
2022-10-05T19:44:57.592Z,20.30
2022-10-05T19:47:45.512Z,20.31
2022-10-05T19:50:27.882Z,20.27
2022-10-05T19:53:11.392Z,20.27
2022-10-05T19:55:41.920Z,20.30
2022-10-05T19:58:40.092Z,20.16
2022-10-05T20:01:11.508Z,20.20
2022-10-05T20:03:38.722Z,20.19
2022-10-05T20:06:08.171Z,20.19
2022-10-05T20:08:47.122Z,20.26
2022-10-05T20:11:17.516Z,20.06
2022-10-05T20:14:09.679Z,20.15
2022-10-05T20:16:55.382Z,20.21
2022-10-05T20:20:06.748Z,20.21
2022-10-05T20:22:36.118Z,20.26
2022-10-05T20:25:06.507Z,20.26
2022-10-05T20:27:42.245Z,20.27
2022-10-05T20:30:11.653Z,20.30
2022-10-05T20:32:38.676Z,20.31
2022-10-05T20:35:07.073Z,20.22
2022-10-05T20:37:34.217Z,20.29
2022-10-05T20:40:00.941Z,20.24
2022-10-05T20:42:27.653Z,20.33
2022-10-05T20:44:57.010Z,20.35
2022-10-05T20:47:24.797Z,20.38
2022-10-05T20:49:53.477Z,20.24
2022-10-05T20:52:21.277Z,20.32
2022-10-05T20:54:48.174Z,20.30
2022-10-05T20:57:14.981Z,20.10
2022-10-05T20:59:41.864Z,20.26
2022-10-05T21:02:08.741Z,20.22
2022-10-05T21:04:40.817Z,20.15
2022-10-05T21:07:08.532Z,20.16
2022-10-05T21:09:38.161Z,20.21
2022-10-05T21:12:05.000Z,20.29
2022-10-05T21:14:34.658Z,20.26
2022-10-05T21:17:05.197Z,20.18
2022-10-05T21:19:38.470Z,20.18
2022-10-05T21:22:10.013Z,20.16
2022-10-05T21:24:38.929Z,20.15
2022-10-05T21:27:06.269Z,20.05
2022-10-05T21:29:34.442Z,19.88
2022-10-05T21:32:01.389Z,19.65
2022-10-05T21:34:28.838Z,19.92
2022-10-05T21:36:55.678Z,19.93
2022-10-05T21:39:22.562Z,19.77
2022-10-05T21:41:49.875Z,19.82
2022-10-05T21:44:16.848Z,19.79
2022-10-05T21:46:43.920Z,19.88
2022-10-05T21:49:11.027Z,19.83
2022-10-05T21:51:38.787Z,19.80
2022-10-05T21:54:24.515Z,19.60
2022-10-05T21:56:54.844Z,19.74
2022-10-05T21:59:27.204Z,19.64
2022-10-05T22:01:54.105Z,19.71
2022-10-05T22:04:20.983Z,19.74
2022-10-05T22:06:49.224Z,19.71
2022-10-05T22:09:15.949Z,19.78
2022-10-05T22:11:42.693Z,19.62
2022-10-05T22:14:09.630Z,19.63
2022-10-05T22:16:38.952Z,19.65
2022-10-05T22:19:10.968Z,19.87
2022-10-05T22:21:41.675Z,19.82
2022-10-05T22:24:11.733Z,19.75
2022-10-05T22:26:39.110Z,19.83
2022-10-05T22:29:05.904Z,19.83
2022-10-05T22:31:32.901Z,19.44
2022-10-05T22:33:59.643Z,19.61
2022-10-05T22:36:26.923Z,19.60
2022-10-05T22:38:53.753Z,19.64
2022-10-05T22:41:20.993Z,19.69
2022-10-05T22:43:50.403Z,19.50
2022-10-05T22:46:17.562Z,19.38
2022-10-05T22:48:44.366Z,19.57
2022-10-05T22:51:11.111Z,19.58
2022-10-05T22:53:38.287Z,19.57
2022-10-05T22:56:11.054Z,19.47
2022-10-05T22:58:38.302Z,19.46
2022-10-05T23:01:08.109Z,19.28
2022-10-05T23:03:35.503Z,19.38
2022-10-05T23:06:05.295Z,19.27
2022-10-05T23:08:33.380Z,19.33
2022-10-05T23:11:07.255Z,19.25
2022-10-05T23:13:34.416Z,19.36
2022-10-05T23:16:14.256Z,19.37
2022-10-05T23:18:42.562Z,19.42
2022-10-05T23:21:10.537Z,19.38
2022-10-05T23:23:43.633Z,19.24
2022-10-05T23:26:12.149Z,19.38
2022-10-05T23:28:40.617Z,19.35
2022-10-05T23:31:08.975Z,19.21
2022-10-05T23:33:35.857Z,19.38
2022-10-05T23:36:06.348Z,19.26
2022-10-05T23:38:34.475Z,19.33
2022-10-05T23:41:02.631Z,19.28
2022-10-05T23:43:29.974Z,19.22
2022-10-05T23:45:56.932Z,19.35
2022-10-05T23:48:23.673Z,19.27
2022-10-05T23:50:50.610Z,19.34
2022-10-05T23:53:18.011Z,19.27
2022-10-05T23:55:45.236Z,19.40
2022-10-05T23:58:12.004Z,19.37
